sensor_id;sensor_type;location;lat;lon;timestamp;pressure;altitude;pressure_sealevel;temperature;humidity
21803;BME280;18591;47.080;22.214;2023-02-21T00:01:22;99448.19;;;11.10;53.70
21803;BME280;18591;47.080;22.214;2023-02-21T00:03:43;99463.47;;;11.10;53.65
21803;BME280;18591;47.080;22.214;2023-02-21T00:06:03;99451.75;;;11.11;53.40
21803;BME280;18591;47.080;22.214;2023-02-21T00:08:24;99446.31;;;11.13;53.59
21803;BME280;18591;47.080;22.214;2023-02-21T00:10:44;99439.38;;;11.07;53.47
21803;BME280;18591;47.080;22.214;2023-02-21T00:13:08;99438.50;;;11.06;53.26
21803;BME280;18591;47.080;22.214;2023-02-21T00:15:29;99431.63;;;10.99;53.74
21803;BME280;18591;47.080;22.214;2023-02-21T00:17:50;99437.91;;;11.00;53.55
21803;BME280;18591;47.080;22.214;2023-02-21T00:20:11;99435.44;;;10.94;53.70
21803;BME280;18591;47.080;22.214;2023-02-21T00:22:31;99435.53;;;10.92;53.88
21803;BME280;18591;47.080;22.214;2023-02-21T00:24:52;99429.38;;;10.88;53.42
21803;BME280;18591;47.080;22.214;2023-02-21T00:27:14;99436.56;;;10.88;53.73
21803;BME280;18591;47.080;22.214;2023-02-21T00:29:35;99432.16;;;10.87;53.58
21803;BME280;18591;47.080;22.214;2023-02-21T00:31:56;99434.06;;;10.83;53.81
21803;BME280;18591;47.080;22.214;2023-02-21T00:34:17;99430.50;;;10.83;53.88
21803;BME280;18591;47.080;22.214;2023-02-21T00:36:38;99428.81;;;10.80;53.74
21803;BME280;18591;47.080;22.214;2023-02-21T00:38:58;99426.19;;;10.79;54.04
21803;BME280;18591;47.080;22.214;2023-02-21T00:41:20;99417.25;;;10.78;53.94
21803;BME280;18591;47.080;22.214;2023-02-21T00:43:41;99409.16;;;10.80;54.11
21803;BME280;18591;47.080;22.214;2023-02-21T00:46:02;99412.84;;;10.77;53.93
21803;BME280;18591;47.080;22.214;2023-02-21T00:48:22;99415.56;;;10.76;54.09
21803;BME280;18591;47.080;22.214;2023-02-21T00:50:43;99420.22;;;10.72;53.96
21803;BME280;18591;47.080;22.214;2023-02-21T00:53:04;99423.03;;;10.69;54.23
21803;BME280;18591;47.080;22.214;2023-02-21T00:55:24;99420.53;;;10.64;53.94
21803;BME280;18591;47.080;22.214;2023-02-21T00:57:45;99422.34;;;10.64;53.96
21803;BME280;18591;47.080;22.214;2023-02-21T01:00:08;99416.31;;;10.57;54.35
21803;BME280;18591;47.080;22.214;2023-02-21T01:02:33;99428.75;;;10.60;54.10
21803;BME280;18591;47.080;22.214;2023-02-21T01:04:54;99423.69;;;10.52;54.18
21803;BME280;18591;47.080;22.214;2023-02-21T01:07:15;99425.56;;;10.50;54.53
21803;BME280;18591;47.080;22.214;2023-02-21T01:09:36;99415.94;;;10.44;54.62
21803;BME280;18591;47.080;22.214;2023-02-21T01:11:56;99417.88;;;10.41;54.62
21803;BME280;18591;47.080;22.214;2023-02-21T01:14:18;99417.88;;;10.41;54.50
21803;BME280;18591;47.080;22.214;2023-02-21T01:16:38;99417.94;;;10.39;54.88
21803;BME280;18591;47.080;22.214;2023-02-21T01:19:13;99417.19;;;10.36;54.61
21803;BME280;18591;47.080;22.214;2023-02-21T01:21:34;99414.66;;;10.31;54.82
21803;BME280;18591;47.080;22.214;2023-02-21T01:23:55;99408.31;;;10.34;54.75
21803;BME280;18591;47.080;22.214;2023-02-21T01:26:15;99416.50;;;10.31;55.20
21803;BME280;18591;47.080;22.214;2023-02-21T01:28:36;99428.16;;;10.30;55.31
21803;BME280;18591;47.080;22.214;2023-02-21T01:30:58;99410.31;;;10.29;55.22
21803;BME280;18591;47.080;22.214;2023-02-21T01:33:19;99412.84;;;10.32;55.23
21803;BME280;18591;47.080;22.214;2023-02-21T01:35:39;99412.97;;;10.29;55.22
21803;BME280;18591;47.080;22.214;2023-02-21T01:38:01;99409.25;;;10.33;54.92
21803;BME280;18591;47.080;22.214;2023-02-21T01:40:22;99404.88;;;10.30;55.08
21803;BME280;18591;47.080;22.214;2023-02-21T01:42:42;99411.38;;;10.23;55.26
21803;BME280;18591;47.080;22.214;2023-02-21T01:47:42;99394.19;;;10.05;55.35
21803;BME280;18591;47.080;22.214;2023-02-21T01:50:17;99409.59;;;10.00;55.83
21803;BME280;18591;47.080;22.214;2023-02-21T01:52:39;99398.91;;;9.98;55.52
21803;BME280;18591;47.080;22.214;2023-02-21T01:55:02;99396.28;;;9.97;55.53
21803;BME280;18591;47.080;22.214;2023-02-21T01:57:24;99391.66;;;10.00;55.61
21803;BME280;18591;47.080;22.214;2023-02-21T01:59:45;99382.66;;;10.01;55.43
21803;BME280;18591;47.080;22.214;2023-02-21T02:04:41;99370.72;;;10.10;55.54
21803;BME280;18591;47.080;22.214;2023-02-21T02:07:03;99380.69;;;10.07;55.29
21803;BME280;18591;47.080;22.214;2023-02-21T02:09:24;99373.53;;;10.07;55.12
21803;BME280;18591;47.080;22.214;2023-02-21T02:17:28;99377.13;;;9.82;55.88
21803;BME280;18591;47.080;22.214;2023-02-21T02:37:04;99353.53;;;9.44;55.89
21803;BME280;18591;47.080;22.214;2023-02-21T02:39:31;99357.94;;;9.46;55.96
21803;BME280;18591;47.080;22.214;2023-02-21T02:46:36;99347.31;;;9.43;56.24
21803;BME280;18591;47.080;22.214;2023-02-21T02:48:43;99348.88;;;9.49;55.57
21803;BME280;18591;47.080;22.214;2023-02-21T02:50:49;99347.75;;;9.56;55.84
21803;BME280;18591;47.080;22.214;2023-02-21T02:52:54;99353.97;;;9.56;55.40
21803;BME280;18591;47.080;22.214;2023-02-21T02:55:02;99344.34;;;9.51;56.03
21803;BME280;18591;47.080;22.214;2023-02-21T02:57:06;99340.69;;;9.53;56.03
21803;BME280;18591;47.080;22.214;2023-02-21T02:59:22;99345.97;;;9.55;56.14
21803;BME280;18591;47.080;22.214;2023-02-21T03:09:00;99343.66;;;9.46;56.88
21803;BME280;18591;47.080;22.214;2023-02-21T03:11:15;99332.84;;;9.47;56.63
21803;BME280;18591;47.080;22.214;2023-02-21T03:13:26;99335.47;;;9.49;56.77
21803;BME280;18591;47.080;22.214;2023-02-21T03:15:44;99335.81;;;9.40;56.77
21803;BME280;18591;47.080;22.214;2023-02-21T03:18:02;99334.06;;;9.38;56.78
21803;BME280;18591;47.080;22.214;2023-02-21T03:20:06;99320.72;;;9.37;56.25
21803;BME280;18591;47.080;22.214;2023-02-21T03:22:14;99332.31;;;9.37;56.50
21803;BME280;18591;47.080;22.214;2023-02-21T03:24:18;99326.94;;;9.37;56.81
21803;BME280;18591;47.080;22.214;2023-02-21T03:26:23;99329.75;;;9.34;56.78
21803;BME280;18591;47.080;22.214;2023-02-21T03:28:32;99327.75;;;9.40;56.65
21803;BME280;18591;47.080;22.214;2023-02-21T03:30:37;99334.94;;;9.39;56.35
21803;BME280;18591;47.080;22.214;2023-02-21T03:32:46;99338.56;;;9.38;56.27
21803;BME280;18591;47.080;22.214;2023-02-21T03:34:51;99339.63;;;9.32;56.27
21803;BME280;18591;47.080;22.214;2023-02-21T03:36:55;99329.97;;;9.28;56.26
21803;BME280;18591;47.080;22.214;2023-02-21T03:38:57;99330.19;;;9.22;56.52
21803;BME280;18591;47.080;22.214;2023-02-21T03:41:00;99345.63;;;9.15;56.82
21803;BME280;18591;47.080;22.214;2023-02-21T03:43:04;99331.34;;;9.15;57.00
21803;BME280;18591;47.080;22.214;2023-02-21T03:45:19;99323.19;;;9.18;56.37
21803;BME280;18591;47.080;22.214;2023-02-21T03:47:41;99329.59;;;9.14;56.81
21803;BME280;18591;47.080;22.214;2023-02-21T03:49:44;99326.91;;;9.14;56.43
21803;BME280;18591;47.080;22.214;2023-02-21T03:51:46;99330.47;;;9.14;56.30
21803;BME280;18591;47.080;22.214;2023-02-21T03:53:48;99325.06;;;9.16;56.11
21803;BME280;18591;47.080;22.214;2023-02-21T03:55:53;99326.84;;;9.15;56.04
21803;BME280;18591;47.080;22.214;2023-02-21T03:58:03;99320.78;;;9.10;56.39
21803;BME280;18591;47.080;22.214;2023-02-21T04:00:07;99319.09;;;9.08;56.46
21803;BME280;18591;47.080;22.214;2023-02-21T04:02:15;99319.09;;;9.08;56.51
21803;BME280;18591;47.080;22.214;2023-02-21T04:04:18;99316.56;;;9.03;56.70
21803;BME280;18591;47.080;22.214;2023-02-21T04:06:25;99311.22;;;9.03;56.27
21803;BME280;18591;47.080;22.214;2023-02-21T04:08:28;99316.56;;;9.03;56.40
21803;BME280;18591;47.080;22.214;2023-02-21T04:10:31;99302.19;;;9.06;56.40
21803;BME280;18591;47.080;22.214;2023-02-21T04:12:40;99305.09;;;9.00;56.64
21803;BME280;18591;47.080;22.214;2023-02-21T04:14:43;99297.97;;;8.99;56.61
21803;BME280;18591;47.080;22.214;2023-02-21T04:16:45;99280.38;;;8.91;56.87
21803;BME280;18591;47.080;22.214;2023-02-21T04:18:48;99285.50;;;8.98;57.29
21803;BME280;18591;47.080;22.214;2023-02-21T04:20:53;99289.56;;;9.09;57.03
21803;BME280;18591;47.080;22.214;2023-02-21T04:22:56;99291.03;;;9.18;57.02
21803;BME280;18591;47.080;22.214;2023-02-21T04:25:05;99282.72;;;9.26;56.55
21803;BME280;18591;47.080;22.214;2023-02-21T04:27:14;99287.66;;;9.36;56.37
21803;BME280;18591;47.080;22.214;2023-02-21T04:29:21;99289.19;;;9.44;56.24
21803;BME280;18591;47.080;22.214;2023-02-21T04:31:24;99284.47;;;9.50;56.31
21803;BME280;18591;47.080;22.214;2023-02-21T04:33:26;99283.41;;;9.54;56.33
21803;BME280;18591;47.080;22.214;2023-02-21T04:35:29;99281.41;;;9.61;56.13
21803;BME280;18591;47.080;22.214;2023-02-21T04:37:35;99280.28;;;9.67;56.07
21803;BME280;18591;47.080;22.214;2023-02-21T04:39:37;99282.88;;;9.68;56.28
21803;BME280;18591;47.080;22.214;2023-02-21T04:41:40;99285.38;;;9.73;55.90
21803;BME280;18591;47.080;22.214;2023-02-21T04:43:43;99288.03;;;9.74;56.02
21803;BME280;18591;47.080;22.214;2023-02-21T04:45:46;99284.56;;;9.71;55.86
21803;BME280;18591;47.080;22.214;2023-02-21T04:47:48;99280.97;;;9.72;55.92
21803;BME280;18591;47.080;22.214;2023-02-21T04:49:50;99279.03;;;9.75;55.63
21803;BME280;18591;47.080;22.214;2023-02-21T04:51:54;99284.28;;;9.78;55.79
21803;BME280;18591;47.080;22.214;2023-02-21T04:53:56;99287.78;;;9.80;55.67
21803;BME280;18591;47.080;22.214;2023-02-21T04:55:58;99284.09;;;9.83;55.63
21803;BME280;18591;47.080;22.214;2023-02-21T04:58:03;99285.22;;;9.77;55.74
21803;BME280;18591;47.080;22.214;2023-02-21T05:00:06;99279.84;;;9.77;55.39
21803;BME280;18591;47.080;22.214;2023-02-21T05:02:11;99282.09;;;9.66;55.65
21803;BME280;18591;47.080;22.214;2023-02-21T05:04:13;99283.78;;;9.69;55.59
21803;BME280;18591;47.080;22.214;2023-02-21T05:06:24;99284.06;;;9.61;55.70
21803;BME280;18591;47.080;22.214;2023-02-21T05:08:27;99282.47;;;9.55;55.66
21803;BME280;18591;47.080;22.214;2023-02-21T05:10:29;99284.06;;;9.61;55.97
21803;BME280;18591;47.080;22.214;2023-02-21T05:12:45;99289.06;;;9.70;55.79
21803;BME280;18591;47.080;22.214;2023-02-21T05:14:48;99288.16;;;9.71;55.55
21803;BME280;18591;47.080;22.214;2023-02-21T05:16:50;99288.94;;;9.73;55.48
21803;BME280;18591;47.080;22.214;2023-02-21T05:18:52;99279.31;;;9.68;55.30
21803;BME280;18591;47.080;22.214;2023-02-21T05:20:55;99273.16;;;9.66;55.88
21803;BME280;18591;47.080;22.214;2023-02-21T05:22:57;99281.09;;;9.69;55.50
21803;BME280;18591;47.080;22.214;2023-02-21T05:25:21;99281.69;;;9.53;55.66
21803;BME280;18591;47.080;22.214;2023-02-21T05:27:24;99277.03;;;9.58;55.64
21803;BME280;18591;47.080;22.214;2023-02-21T05:29:26;99273.44;;;9.58;55.60
21803;BME280;18591;47.080;22.214;2023-02-21T05:31:29;99281.56;;;9.56;55.71
21803;BME280;18591;47.080;22.214;2023-02-21T05:33:32;99283.59;;;9.50;55.75
21803;BME280;18591;47.080;22.214;2023-02-21T05:35:34;99280.78;;;9.53;55.89
21803;BME280;18591;47.080;22.214;2023-02-21T05:37:36;99283.41;;;9.54;55.71
21803;BME280;18591;47.080;22.214;2023-02-21T05:39:38;99277.94;;;9.57;55.90
21803;BME280;18591;47.080;22.214;2023-02-21T05:41:48;99275.09;;;9.62;55.89
21803;BME280;18591;47.080;22.214;2023-02-21T05:43:51;99282.97;;;9.67;55.63
21803;BME280;18591;47.080;22.214;2023-02-21T05:45:53;99284.47;;;9.74;55.68
21803;BME280;18591;47.080;22.214;2023-02-21T05:47:55;99280.69;;;9.79;55.55
21803;BME280;18591;47.080;22.214;2023-02-21T05:50:01;99283.19;;;9.84;55.45
21803;BME280;18591;47.080;22.214;2023-02-21T05:52:03;99291.97;;;9.88;55.28
21803;BME280;18591;47.080;22.214;2023-02-21T05:54:07;99287.78;;;9.80;55.62
21803;BME280;18591;47.080;22.214;2023-02-21T05:56:10;99279.81;;;9.79;56.08
21803;BME280;18591;47.080;22.214;2023-02-21T05:58:12;99283.22;;;9.82;56.10
21803;BME280;18591;47.080;22.214;2023-02-21T06:00:16;99279.25;;;9.93;55.83
21803;BME280;18591;47.080;22.214;2023-02-21T06:02:19;99279.06;;;9.97;55.30
21803;BME280;18591;47.080;22.214;2023-02-21T06:04:22;99281.19;;;10.11;55.50
21803;BME280;18591;47.080;22.214;2023-02-21T06:06:24;99285.38;;;10.18;55.43
21803;BME280;18591;47.080;22.214;2023-02-21T06:08:32;99287.13;;;10.19;55.24
21803;BME280;18591;47.080;22.214;2023-02-21T06:10:34;99278.72;;;10.29;55.34
21803;BME280;18591;47.080;22.214;2023-02-21T06:12:36;99280.06;;;10.40;55.49
21803;BME280;18591;47.080;22.214;2023-02-21T06:14:38;99281.38;;;10.51;55.33
21803;BME280;18591;47.080;22.214;2023-02-21T06:16:41;99280.16;;;10.59;54.89
21803;BME280;18591;47.080;22.214;2023-02-21T06:18:54;99277.03;;;10.68;54.90
21803;BME280;18591;47.080;22.214;2023-02-21T06:20:57;99266.88;;;10.77;54.62
21803;BME280;18591;47.080;22.214;2023-02-21T06:22:59;99287.13;;;10.84;54.87
21803;BME280;18591;47.080;22.214;2023-02-21T06:25:01;99286.41;;;11.01;54.47
21803;BME280;18591;47.080;22.214;2023-02-21T06:27:04;99292.47;;;11.06;54.57
21803;BME280;18591;47.080;22.214;2023-02-21T06:29:06;99290.16;;;11.17;54.24
21803;BME280;18591;47.080;22.214;2023-02-21T06:31:09;99286.88;;;11.31;54.29
21803;BME280;18591;47.080;22.214;2023-02-21T06:33:13;99283.75;;;11.40;53.92
21803;BME280;18591;47.080;22.214;2023-02-21T06:35:15;99290.34;;;11.53;53.98
21803;BME280;18591;47.080;22.214;2023-02-21T06:37:18;99278.19;;;11.64;53.66
21803;BME280;18591;47.080;22.214;2023-02-21T06:39:21;99280.94;;;11.62;52.95
21803;BME280;18591;47.080;22.214;2023-02-21T06:41:27;99277.91;;;11.70;52.73
21803;BME280;18591;47.080;22.214;2023-02-21T06:43:29;99283.88;;;11.76;52.87
21803;BME280;18591;47.080;22.214;2023-02-21T06:45:31;99274.44;;;11.87;52.66
21803;BME280;18591;47.080;22.214;2023-02-21T06:47:33;99268.81;;;11.91;53.03
21803;BME280;18591;47.080;22.214;2023-02-21T06:49:35;99271.97;;;12.01;52.56
21803;BME280;18591;47.080;22.214;2023-02-21T06:51:39;99275.38;;;12.05;51.72
21803;BME280;18591;47.080;22.214;2023-02-21T06:53:42;99268.59;;;12.15;52.30
21803;BME280;18591;47.080;22.214;2023-02-21T06:55:45;99278.44;;;12.16;51.67
21803;BME280;18591;47.080;22.214;2023-02-21T06:57:48;99256.88;;;12.16;52.02
21803;BME280;18591;47.080;22.214;2023-02-21T06:59:50;99281.59;;;12.24;52.23
21803;BME280;18591;47.080;22.214;2023-02-21T07:01:52;99278.59;;;12.30;51.99
21803;BME280;18591;47.080;22.214;2023-02-21T07:03:55;99284.78;;;12.32;51.62
21803;BME280;18591;47.080;22.214;2023-02-21T07:05:58;99284.78;;;12.32;51.75
21803;BME280;18591;47.080;22.214;2023-02-21T07:08:06;99290.34;;;12.29;51.49
21803;BME280;18591;47.080;22.214;2023-02-21T07:10:11;99279.97;;;12.39;51.61
21803;BME280;18591;47.080;22.214;2023-02-21T07:12:13;99282.53;;;12.42;51.95
21803;BME280;18591;47.080;22.214;2023-02-21T07:14:16;99284.50;;;12.38;52.04
21803;BME280;18591;47.080;22.214;2023-02-21T07:16:19;99293.38;;;12.40;51.69
21803;BME280;18591;47.080;22.214;2023-02-21T07:18:21;99319.28;;;12.43;51.57
21803;BME280;18591;47.080;22.214;2023-02-21T07:20:23;99326.34;;;12.46;52.09
21803;BME280;18591;47.080;22.214;2023-02-21T07:22:25;99313.81;;;12.45;51.74
21803;BME280;18591;47.080;22.214;2023-02-21T07:24:27;99320.19;;;12.44;51.99
21803;BME280;18591;47.080;22.214;2023-02-21T07:26:29;99322.88;;;12.44;52.06
21803;BME280;18591;47.080;22.214;2023-02-21T07:28:32;99317.59;;;12.40;52.03
21803;BME280;18591;47.080;22.214;2023-02-21T07:30:34;99322.78;;;12.45;51.77
21803;BME280;18591;47.080;22.214;2023-02-21T07:32:36;99327.31;;;12.45;51.53
21803;BME280;18591;47.080;22.214;2023-02-21T07:34:38;99326.06;;;12.52;51.47
21803;BME280;18591;47.080;22.214;2023-02-21T07:36:40;99315.28;;;12.52;51.82
21803;BME280;18591;47.080;22.214;2023-02-21T07:38:42;99317.75;;;12.56;52.09
21803;BME280;18591;47.080;22.214;2023-02-21T07:40:44;99319.31;;;12.60;51.56
21803;BME280;18591;47.080;22.214;2023-02-21T07:42:47;99324.66;;;12.62;51.50
21803;BME280;18591;47.080;22.214;2023-02-21T07:44:54;99322.81;;;12.62;51.33
21803;BME280;18591;47.080;22.214;2023-02-21T07:46:58;99334.19;;;12.69;51.91
21803;BME280;18591;47.080;22.214;2023-02-21T07:49:01;99333.78;;;12.77;51.75
21803;BME280;18591;47.080;22.214;2023-02-21T07:51:03;99328.31;;;12.78;51.63
21803;BME280;18591;47.080;22.214;2023-02-21T07:53:07;99327.13;;;12.84;51.40
21803;BME280;18591;47.080;22.214;2023-02-21T07:55:11;99329.50;;;12.90;51.54
21803;BME280;18591;47.080;22.214;2023-02-21T07:57:15;99339.13;;;12.96;51.00
21803;BME280;18591;47.080;22.214;2023-02-21T07:59:18;99339.69;;;13.02;51.42
21803;BME280;18591;47.080;22.214;2023-02-21T08:01:22;99336.88;;;13.04;51.46
21803;BME280;18591;47.080;22.214;2023-02-21T08:03:24;99344.59;;;13.12;51.12
21803;BME280;18591;47.080;22.214;2023-02-21T08:05:27;99339.50;;;13.23;51.52
21803;BME280;18591;47.080;22.214;2023-02-21T08:07:29;99332.56;;;13.36;51.63
21803;BME280;18591;47.080;22.214;2023-02-21T08:09:32;99323.88;;;13.47;51.28
21803;BME280;18591;47.080;22.214;2023-02-21T08:11:36;99335.38;;;13.50;50.31
21803;BME280;18591;47.080;22.214;2023-02-21T08:13:41;99325.38;;;13.53;50.57
21803;BME280;18591;47.080;22.214;2023-02-21T08:15:43;99319.81;;;13.56;50.70
21803;BME280;18591;47.080;22.214;2023-02-21T08:17:49;99318.88;;;13.57;50.62
21803;BME280;18591;47.080;22.214;2023-02-21T08:19:51;99320.34;;;13.62;50.69
21803;BME280;18591;47.080;22.214;2023-02-21T08:21:53;99310.19;;;13.67;50.98
21803;BME280;18591;47.080;22.214;2023-02-21T08:23:55;99306.09;;;13.76;50.39
21803;BME280;18591;47.080;22.214;2023-02-21T08:25:58;99306.53;;;13.84;50.67
21803;BME280;18591;47.080;22.214;2023-02-21T08:28:00;99307.09;;;13.91;49.63
21803;BME280;18591;47.080;22.214;2023-02-21T08:30:02;99291.75;;;13.91;48.95
21803;BME280;18591;47.080;22.214;2023-02-21T08:32:04;99310.16;;;14.01;49.39
21803;BME280;18591;47.080;22.214;2023-02-21T08:34:07;99305.19;;;14.09;49.51
21803;BME280;18591;47.080;22.214;2023-02-21T08:36:10;99306.47;;;14.18;49.16
21803;BME280;18591;47.080;22.214;2023-02-21T08:38:12;99303.34;;;14.25;49.28
21803;BME280;18591;47.080;22.214;2023-02-21T08:40:17;99299.25;;;14.34;49.65
21803;BME280;18591;47.080;22.214;2023-02-21T08:42:20;99305.78;;;14.30;48.87
21803;BME280;18591;47.080;22.214;2023-02-21T08:44:22;99303.50;;;14.38;49.08
21803;BME280;18591;47.080;22.214;2023-02-21T08:46:24;99299.69;;;14.42;48.38
21803;BME280;18591;47.080;22.214;2023-02-21T08:48:26;99302.66;;;14.53;49.97
21803;BME280;18591;47.080;22.214;2023-02-21T08:50:28;99299.44;;;14.63;49.09
21803;BME280;18591;47.080;22.214;2023-02-21T08:52:31;99295.50;;;14.68;49.15
21803;BME280;18591;47.080;22.214;2023-02-21T08:54:33;99296.97;;;14.74;49.02
21803;BME280;18591;47.080;22.214;2023-02-21T08:56:35;99286.56;;;14.82;49.14
21803;BME280;18591;47.080;22.214;2023-02-21T08:58:38;99285.59;;;14.83;48.87
21803;BME280;18591;47.080;22.214;2023-02-21T09:00:40;99307.50;;;14.78;48.99
21803;BME280;18591;47.080;22.214;2023-02-21T09:02:42;99306.06;;;14.87;48.80
21803;BME280;18591;47.080;22.214;2023-02-21T09:04:45;99314.63;;;14.95;49.01
21803;BME280;18591;47.080;22.214;2023-02-21T09:06:50;99305.75;;;15.08;49.72
21803;BME280;18591;47.080;22.214;2023-02-21T09:08:52;99297.63;;;15.08;49.20
21803;BME280;18591;47.080;22.214;2023-02-21T09:10:54;99308.91;;;15.16;49.34
21803;BME280;18591;47.080;22.214;2023-02-21T09:13:02;99314.00;;;15.20;48.82
21803;BME280;18591;47.080;22.214;2023-02-21T09:15:05;99310.44;;;15.20;48.83
21803;BME280;18591;47.080;22.214;2023-02-21T09:17:10;99307.06;;;15.31;48.99
21803;BME280;18591;47.080;22.214;2023-02-21T09:19:13;99298.00;;;15.32;48.75
21803;BME280;18591;47.080;22.214;2023-02-21T09:21:15;99301.47;;;15.34;48.67
21803;BME280;18591;47.080;22.214;2023-02-21T09:23:20;99296.16;;;15.32;49.12
21803;BME280;18591;47.080;22.214;2023-02-21T09:25:24;99306.81;;;15.50;48.54
21803;BME280;18591;47.080;22.214;2023-02-21T09:27:26;99305.47;;;15.57;48.93
21803;BME280;18591;47.080;22.214;2023-02-21T09:29:37;99298.81;;;15.62;48.44
21803;BME280;18591;47.080;22.214;2023-02-21T09:31:48;99290.56;;;15.64;48.42
21803;BME280;18591;47.080;22.214;2023-02-21T09:33:50;99284.00;;;15.68;48.48
21803;BME280;18591;47.080;22.214;2023-02-21T09:35:52;99290.88;;;15.74;48.78
21803;BME280;18591;47.080;22.214;2023-02-21T09:37:54;99296.97;;;15.77;48.45
21803;BME280;18591;47.080;22.214;2023-02-21T09:39:58;99293.31;;;15.78;48.70
21803;BME280;18591;47.080;22.214;2023-02-21T09:42:01;99285.84;;;15.82;48.23
21803;BME280;18591;47.080;22.214;2023-02-21T09:44:04;99293.28;;;15.93;48.31
21803;BME280;18591;47.080;22.214;2023-02-21T09:46:15;99285.72;;;15.98;48.30
21803;BME280;18591;47.080;22.214;2023-02-21T09:48:21;99292.03;;;15.98;47.77
21803;BME280;18591;47.080;22.214;2023-02-21T09:50:39;99296.47;;;15.99;46.90
21803;BME280;18591;47.080;22.214;2023-02-21T09:52:43;99282.44;;;16.07;48.40
21803;BME280;18591;47.080;22.214;2023-02-21T09:54:51;99286.78;;;16.09;48.44
21803;BME280;18591;47.080;22.214;2023-02-21T09:57:00;99283.28;;;16.22;47.87
21803;BME280;18591;47.080;22.214;2023-02-21T09:59:02;99291.50;;;16.20;47.74
21803;BME280;18591;47.080;22.214;2023-02-21T10:01:12;99285.78;;;16.25;48.14
21803;BME280;18591;47.080;22.214;2023-02-21T10:08:48;99290.75;;;16.45;47.68
21803;BME280;18591;47.080;22.214;2023-02-21T10:22:39;99271.63;;;16.61;47.34
21803;BME280;18591;47.080;22.214;2023-02-21T10:24:43;99273.41;;;16.75;48.19
21803;BME280;18591;47.080;22.214;2023-02-21T10:27:05;99274.50;;;16.72;47.40
21803;BME280;18591;47.080;22.214;2023-02-21T10:29:22;99268.16;;;16.86;47.44
21803;BME280;18591;47.080;22.214;2023-02-21T10:31:33;99271.00;;;16.97;47.48
21803;BME280;18591;47.080;22.214;2023-02-21T10:33:38;99273.84;;;17.09;47.77
21803;BME280;18591;47.080;22.214;2023-02-21T10:35:41;99281.88;;;17.10;47.49
21803;BME280;18591;47.080;22.214;2023-02-21T10:37:50;99261.38;;;17.19;47.93
21803;BME280;18591;47.080;22.214;2023-02-21T10:39:57;99279.16;;;17.23;47.34
21803;BME280;18591;47.080;22.214;2023-02-21T10:42:01;99273.44;;;17.28;47.88
21803;BME280;18591;47.080;22.214;2023-02-21T10:44:27;99279.84;;;17.27;46.76
21803;BME280;18591;47.080;22.214;2023-02-21T10:46:36;99283.75;;;17.35;46.74
21803;BME280;18591;47.080;22.214;2023-02-21T10:48:42;99276.25;;;17.39;47.44
21803;BME280;18591;47.080;22.214;2023-02-21T10:50:53;99270.09;;;17.37;46.85
21803;BME280;18591;47.080;22.214;2023-02-21T10:53:06;99263.56;;;17.39;47.24
21803;BME280;18591;47.080;22.214;2023-02-21T10:55:21;99267.47;;;17.35;46.26
21803;BME280;18591;47.080;22.214;2023-02-21T10:57:38;99269.41;;;17.33;46.46
21803;BME280;18591;47.080;22.214;2023-02-21T10:59:41;99252.47;;;17.30;46.82
21803;BME280;18591;47.080;22.214;2023-02-21T11:01:45;99240.63;;;17.31;46.75
21803;BME280;18591;47.080;22.214;2023-02-21T11:03:50;99232.38;;;17.32;46.81
21803;BME280;18591;47.080;22.214;2023-02-21T11:05:55;99232.47;;;17.31;46.71
21803;BME280;18591;47.080;22.214;2023-02-21T11:08:05;99228.91;;;17.30;46.86
21803;BME280;18591;47.080;22.214;2023-02-21T11:10:35;99223.16;;;17.35;47.02
21803;BME280;18591;47.080;22.214;2023-02-21T11:12:38;99203.69;;;17.41;46.97
21803;BME280;18591;47.080;22.214;2023-02-21T11:14:42;99199.13;;;17.41;46.33
21803;BME280;18591;47.080;22.214;2023-02-21T11:17:21;99200.97;;;17.41;45.85
21803;BME280;18591;47.080;22.214;2023-02-21T11:19:24;99204.78;;;17.51;46.72
21803;BME280;18591;47.080;22.214;2023-02-21T11:21:26;99200.63;;;17.58;46.53
21803;BME280;18591;47.080;22.214;2023-02-21T11:23:30;99198.78;;;17.59;46.95
21803;BME280;18591;47.080;22.214;2023-02-21T11:25:38;99196.84;;;17.61;47.15
21803;BME280;18591;47.080;22.214;2023-02-21T11:27:41;99201.59;;;17.70;47.13
21803;BME280;18591;47.080;22.214;2023-02-21T11:29:48;99197.38;;;17.66;46.92
21803;BME280;18591;47.080;22.214;2023-02-21T11:31:52;99213.97;;;17.74;46.52
21803;BME280;18591;47.080;22.214;2023-02-21T11:34:00;99202.00;;;17.77;45.76
21803;BME280;18591;47.080;22.214;2023-02-21T11:36:16;99204.84;;;17.75;46.51
21803;BME280;18591;47.080;22.214;2023-02-21T11:40:49;99182.59;;;17.83;46.65
21803;BME280;18591;47.080;22.214;2023-02-21T11:43:11;99173.97;;;17.89;46.11
21803;BME280;18591;47.080;22.214;2023-02-21T11:45:24;99160.91;;;17.94;45.84
21803;BME280;18591;47.080;22.214;2023-02-21T11:47:40;99155.56;;;17.93;45.55
21803;BME280;18591;47.080;22.214;2023-02-21T11:52:12;99178.28;;;18.04;45.39
21803;BME280;18591;47.080;22.214;2023-02-21T11:54:15;99186.09;;;18.09;45.35
21803;BME280;18591;47.080;22.214;2023-02-21T11:58:55;99197.25;;;18.17;45.11
21803;BME280;18591;47.080;22.214;2023-02-21T12:01:11;99195.09;;;18.10;45.46
21803;BME280;18591;47.080;22.214;2023-02-21T12:08:16;99186.94;;;17.86;45.95
21803;BME280;18591;47.080;22.214;2023-02-21T12:15:29;99172.72;;;18.06;45.42
21803;BME280;18591;47.080;22.214;2023-02-21T12:17:55;99174.44;;;18.07;45.99
21803;BME280;18591;47.080;22.214;2023-02-21T12:22:49;99169.88;;;18.08;46.07
21803;BME280;18591;47.080;22.214;2023-02-21T12:25:08;99173.00;;;18.14;46.55
21803;BME280;18591;47.080;22.214;2023-02-21T12:46:56;99147.56;;;18.15;44.74
21803;BME280;18591;47.080;22.214;2023-02-21T12:49:13;99132.09;;;18.16;45.13
21803;BME280;18591;47.080;22.214;2023-02-21T12:51:20;99139.53;;;18.14;44.56